createdAt,value
2022-08-29T00:00:23.472Z,84.37
2022-08-29T00:03:00.036Z,84.63
2022-08-29T00:05:33.158Z,84.31
2022-08-29T00:08:02.679Z,84.33
2022-08-29T00:10:32.836Z,84.16
2022-08-29T00:13:02.257Z,84.31
2022-08-29T00:15:30.846Z,84.15
2022-08-29T00:18:00.932Z,83.95
2022-08-29T00:20:34.549Z,84.27
2022-08-29T00:23:04.256Z,84.42
2022-08-29T00:25:33.531Z,84.24
2022-08-29T00:28:02.257Z,84.02
2022-08-29T00:30:31.161Z,83.72
2022-08-29T00:32:59.682Z,83.86
2022-08-29T00:35:32.790Z,84.13
2022-08-29T00:38:01.897Z,84.63
2022-08-29T00:40:34.550Z,84.53
2022-08-29T00:43:03.551Z,84.23
2022-08-29T00:45:33.305Z,84.17
2022-08-29T00:48:06.250Z,83.72
2022-08-29T00:50:39.968Z,83.63
2022-08-29T00:53:12.880Z,83.52
2022-08-29T00:55:42.436Z,83.55
2022-08-29T00:58:25.911Z,83.69
2022-08-29T01:00:54.771Z,83.59
2022-08-29T01:03:23.290Z,83.50
2022-08-29T01:05:53.492Z,83.52
2022-08-29T01:08:22.006Z,83.62
2022-08-29T01:11:08.012Z,83.96
2022-08-29T01:13:42.792Z,83.96
2022-08-29T01:16:13.107Z,83.59
2022-08-29T01:18:45.304Z,83.31
2022-08-29T01:21:24.905Z,83.52
2022-08-29T01:24:00.657Z,83.29
2022-08-29T01:26:31.507Z,83.39
2022-08-29T01:29:00.327Z,83.34
2022-08-29T01:31:56.068Z,83.40
2022-08-29T01:34:28.764Z,83.35
2022-08-29T01:36:59.351Z,83.53
2022-08-29T01:39:30.770Z,83.28
2022-08-29T01:42:03.857Z,83.15
2022-08-29T01:44:32.667Z,83.50
2022-08-29T01:47:03.348Z,83.55
2022-08-29T01:49:33.164Z,83.36
2022-08-29T01:52:03.252Z,83.55
2022-08-29T01:54:32.396Z,83.45
2022-08-29T01:57:02.932Z,83.22
2022-08-29T01:59:32.589Z,83.16
2022-08-29T02:02:05.566Z,83.41
2022-08-29T02:04:34.352Z,83.55
2022-08-29T02:07:03.072Z,83.74
2022-08-29T02:09:31.685Z,83.37
2022-08-29T02:12:07.061Z,82.83
2022-08-29T02:14:36.282Z,83.01
2022-08-29T02:17:07.130Z,82.84
2022-08-29T02:19:36.963Z,82.74
2022-08-29T02:22:06.071Z,82.68
2022-08-29T02:24:34.622Z,82.78
2022-08-29T02:27:05.354Z,83.32
2022-08-29T02:29:37.739Z,83.52
2022-08-29T02:32:08.550Z,83.55
2022-08-29T02:34:38.190Z,83.21
2022-08-29T02:37:07.488Z,83.05
2022-08-29T02:39:36.044Z,82.79
2022-08-29T02:42:06.925Z,83.09
2022-08-29T02:44:35.555Z,83.06
2022-08-29T02:47:04.192Z,83.15
2022-08-29T02:49:32.699Z,82.92
2022-08-29T02:52:06.575Z,82.78
2022-08-29T02:54:35.258Z,82.91
2022-08-29T02:57:05.459Z,83.03
2022-08-29T02:59:34.011Z,82.70
2022-08-29T03:02:02.716Z,82.52
2022-08-29T03:04:31.136Z,82.20
2022-08-29T03:06:59.589Z,82.29
2022-08-29T03:09:28.059Z,81.97
2022-08-29T03:11:56.664Z,82.23
2022-08-29T03:14:26.977Z,82.32
2022-08-29T03:16:55.355Z,82.35
2022-08-29T03:19:23.975Z,82.39
2022-08-29T03:21:52.580Z,82.50
2022-08-29T03:24:26.186Z,82.55
2022-08-29T03:26:56.706Z,82.68
2022-08-29T03:29:26.961Z,82.62
2022-08-29T03:31:58.328Z,82.76
2022-08-29T03:34:28.343Z,82.74
2022-08-29T03:36:57.051Z,82.75
2022-08-29T03:39:25.922Z,82.40
2022-08-29T03:41:54.638Z,82.38
2022-08-29T03:44:24.111Z,82.30
2022-08-29T03:46:54.530Z,82.37
2022-08-29T03:49:23.046Z,82.66
2022-08-29T03:51:51.507Z,82.90
2022-08-29T03:54:20.159Z,82.66
2022-08-29T03:56:49.049Z,82.73
2022-08-29T03:59:19.047Z,82.58
2022-08-29T04:01:48.506Z,82.75
2022-08-29T04:04:33.486Z,82.67
2022-08-29T04:07:02.199Z,82.52
2022-08-29T04:09:30.900Z,82.53
2022-08-29T04:12:00.066Z,82.65
2022-08-29T04:14:29.528Z,82.55
2022-08-29T04:16:58.080Z,82.48
2022-08-29T04:19:27.979Z,82.39
2022-08-29T04:21:57.168Z,82.32
2022-08-29T04:24:26.175Z,82.41
2022-08-29T04:26:54.692Z,82.23
2022-08-29T04:29:23.483Z,82.19
2022-08-29T04:31:51.959Z,82.23
2022-08-29T04:34:20.846Z,82.05
2022-08-29T04:36:50.687Z,82.16
2022-08-29T04:39:20.507Z,82.19
2022-08-29T04:41:49.039Z,82.19
2022-08-29T04:44:17.545Z,82.24
2022-08-29T04:46:46.032Z,82.17
2022-08-29T04:49:14.544Z,82.62
2022-08-29T04:51:43.205Z,82.86
2022-08-29T04:54:13.031Z,83.08
2022-08-29T04:56:47.186Z,83.50
2022-08-29T04:59:16.922Z,83.89
2022-08-29T05:01:47.100Z,83.84
2022-08-29T05:04:15.583Z,83.57
2022-08-29T05:06:44.027Z,83.36
2022-08-29T05:09:13.971Z,82.94
2022-08-29T05:11:42.780Z,82.77
2022-08-29T05:14:11.603Z,82.59
2022-08-29T05:16:40.815Z,82.46
2022-08-29T05:19:11.683Z,82.65
2022-08-29T05:21:40.911Z,83.09
2022-08-29T05:24:12.318Z,83.07
2022-08-29T05:26:45.308Z,82.61
2022-08-29T05:29:14.777Z,82.56
2022-08-29T05:31:44.683Z,82.45
2022-08-29T05:34:31.994Z,82.32
2022-08-29T05:37:04.203Z,82.44
2022-08-29T05:39:32.888Z,82.80
2022-08-29T05:42:03.315Z,82.73
2022-08-29T05:44:35.168Z,82.97
2022-08-29T05:47:05.127Z,83.16
2022-08-29T05:49:33.618Z,83.32
2022-08-29T05:52:02.037Z,83.25
2022-08-29T05:54:33.243Z,83.18
2022-08-29T05:57:03.358Z,82.70
2022-08-29T05:59:31.787Z,82.77
2022-08-29T06:02:02.262Z,82.56
2022-08-29T06:04:30.814Z,82.45
2022-08-29T06:06:59.556Z,82.79
2022-08-29T06:09:28.773Z,83.00
2022-08-29T06:11:58.479Z,83.17
2022-08-29T06:14:28.881Z,83.31
2022-08-29T06:16:57.331Z,83.21
2022-08-29T06:19:26.143Z,83.09
2022-08-29T06:21:56.316Z,82.93
2022-08-29T06:24:24.750Z,82.95
2022-08-29T06:26:53.335Z,83.11
2022-08-29T06:29:21.840Z,83.01
2022-08-29T06:31:51.666Z,82.94
2022-08-29T06:34:20.247Z,82.94
2022-08-29T06:36:48.685Z,82.95
2022-08-29T06:39:17.406Z,83.22
2022-08-29T06:41:46.011Z,83.32
2022-08-29T06:44:14.483Z,83.10
2022-08-29T06:46:44.827Z,83.09
2022-08-29T06:49:16.615Z,82.91
2022-08-29T06:51:49.380Z,82.83
2022-08-29T06:54:19.360Z,83.05
2022-08-29T06:56:48.526Z,83.08
2022-08-29T06:59:17.044Z,83.13
2022-08-29T07:01:47.492Z,83.08
2022-08-29T07:04:20.715Z,82.85
2022-08-29T07:06:50.132Z,83.58
2022-08-29T07:09:19.075Z,83.24
2022-08-29T07:11:47.517Z,83.52
2022-08-29T07:14:16.109Z,83.55
2022-08-29T07:16:44.609Z,83.56
2022-08-29T07:19:13.011Z,83.65
2022-08-29T07:21:42.879Z,83.82
2022-08-29T07:24:11.541Z,83.85
2022-08-29T07:26:43.986Z,83.85
2022-08-29T07:29:16.160Z,83.77
2022-08-29T07:31:45.001Z,83.58
2022-08-29T07:34:13.475Z,83.44
2022-08-29T07:36:43.579Z,83.77
2022-08-29T07:39:14.984Z,83.80
2022-08-29T07:41:45.050Z,83.58
2022-08-29T07:44:14.892Z,83.59
2022-08-29T07:46:44.281Z,83.66
2022-08-29T07:49:12.923Z,83.49
2022-08-29T07:51:44.668Z,83.31
2022-08-29T07:54:16.715Z,83.42
2022-08-29T07:56:46.096Z,83.15
2022-08-29T07:59:15.220Z,83.18
2022-08-29T08:01:43.958Z,83.28
2022-08-29T08:04:13.645Z,83.19
2022-08-29T08:06:45.271Z,83.08
2022-08-29T08:09:15.371Z,82.95
2022-08-29T08:11:44.339Z,83.21
2022-08-29T08:14:13.860Z,83.11
2022-08-29T08:16:44.104Z,83.14
2022-08-29T08:19:14.250Z,82.75
2022-08-29T08:21:49.311Z,82.66
2022-08-29T08:24:19.993Z,82.35
2022-08-29T08:26:49.668Z,82.41
2022-08-29T08:29:19.057Z,82.28
2022-08-29T08:31:49.560Z,82.06
2022-08-29T08:34:19.017Z,81.90
2022-08-29T08:36:48.871Z,81.86
2022-08-29T08:39:17.341Z,81.80
2022-08-29T08:41:53.062Z,81.71
2022-08-29T08:44:49.530Z,81.14
2022-08-29T08:47:26.076Z,80.97
2022-08-29T08:50:00.108Z,80.87
2022-08-29T08:52:38.677Z,80.41
2022-08-29T08:55:21.339Z,80.16
2022-08-29T08:58:00.139Z,79.94
2022-08-29T09:00:32.930Z,79.89
2022-08-29T09:03:09.774Z,79.56
2022-08-29T09:05:50.850Z,79.04
2022-08-29T09:08:30.726Z,78.62
2022-08-29T09:11:04.250Z,78.31
2022-08-29T09:13:48.020Z,77.91
2022-08-29T09:16:25.019Z,77.89
2022-08-29T09:18:54.668Z,77.81
2022-08-29T09:21:40.546Z,77.31
2022-08-29T09:24:18.393Z,76.80
2022-08-29T09:26:46.785Z,76.34
2022-08-29T09:29:21.099Z,76.04
2022-08-29T09:32:08.486Z,75.55
2022-08-29T09:35:04.879Z,75.59
2022-08-29T09:37:32.047Z,75.49
2022-08-29T09:40:09.945Z,75.44
2022-08-29T09:42:42.778Z,75.39
2022-08-29T09:45:19.971Z,75.35
2022-08-29T09:47:48.375Z,75.21
2022-08-29T09:50:24.617Z,75.55
2022-08-29T09:52:55.705Z,75.19
2022-08-29T09:55:32.523Z,75.07
2022-08-29T09:58:05.553Z,74.92
2022-08-29T10:00:35.966Z,74.87
2022-08-29T10:03:07.949Z,74.96
2022-08-29T10:05:44.661Z,74.75
2022-08-29T10:08:35.063Z,74.51
2022-08-29T10:11:07.205Z,74.76
2022-08-29T10:13:52.278Z,74.28
2022-08-29T10:16:34.317Z,73.71
2022-08-29T10:19:06.010Z,73.32
2022-08-29T10:21:41.555Z,73.14
2022-08-29T10:24:21.839Z,73.03
2022-08-29T10:27:00.765Z,72.84
2022-08-29T10:29:48.267Z,72.27
2022-08-29T10:32:29.440Z,70.92
2022-08-29T10:35:07.785Z,70.54
2022-08-29T10:37:47.951Z,70.38
2022-08-29T10:40:25.668Z,70.71
2022-08-29T10:43:17.469Z,69.98
2022-08-29T10:45:57.822Z,69.79
2022-08-29T10:48:31.028Z,69.83
2022-08-29T10:51:14.285Z,69.23
2022-08-29T10:53:50.691Z,69.73
2022-08-29T10:56:23.883Z,69.56
2022-08-29T10:59:04.288Z,69.60
2022-08-29T11:01:41.910Z,69.53
2022-08-29T11:04:18.540Z,69.05
2022-08-29T11:06:54.145Z,68.06
2022-08-29T11:09:27.572Z,67.30
2022-08-29T11:12:06.956Z,66.62
2022-08-29T11:14:42.119Z,66.86
2022-08-29T11:17:14.900Z,66.75
2022-08-29T11:19:53.932Z,66.16
2022-08-29T11:22:27.204Z,65.97
2022-08-29T11:25:04.207Z,66.23
2022-08-29T11:27:39.708Z,65.81
2022-08-29T11:30:17.748Z,64.85
2022-08-29T11:33:00.337Z,64.34
2022-08-29T11:35:40.359Z,63.62
2022-08-29T11:38:48.380Z,62.75
2022-08-29T11:41:30.248Z,62.07
2022-08-29T11:44:15.328Z,61.81
2022-08-29T11:46:49.401Z,61.54
2022-08-29T11:49:44.401Z,61.34
2022-08-29T11:52:22.462Z,61.27
2022-08-29T11:55:16.379Z,61.17
2022-08-29T11:57:53.864Z,61.38
2022-08-29T12:00:35.895Z,60.96
2022-08-29T12:03:28.302Z,60.75
2022-08-29T12:06:02.397Z,60.71
2022-08-29T12:08:38.219Z,59.86
2022-08-29T12:11:07.681Z,59.37
2022-08-29T12:14:03.634Z,58.03
2022-08-29T12:16:49.801Z,58.09
2022-08-29T12:19:48.784Z,57.84
2022-08-29T12:22:53.764Z,58.36
2022-08-29T12:25:44.961Z,58.34
2022-08-29T12:28:39.049Z,58.58
2022-08-29T12:31:13.140Z,59.05
2022-08-29T12:33:56.669Z,58.78
2022-08-29T12:36:38.293Z,58.49
2022-08-29T12:39:23.993Z,57.83
2022-08-29T12:42:13.698Z,57.53
2022-08-29T12:44:44.490Z,58.51
2022-08-29T12:47:15.377Z,58.14
2022-08-29T12:49:50.863Z,57.67
2022-08-29T12:52:26.860Z,57.42
2022-08-29T12:54:56.770Z,57.24
2022-08-29T12:57:30.776Z,57.07
2022-08-29T13:00:00.437Z,57.16
2022-08-29T13:02:32.519Z,56.95
2022-08-29T13:05:01.171Z,56.67
2022-08-29T13:07:31.648Z,56.47
2022-08-29T13:10:02.541Z,56.50
2022-08-29T13:12:33.524Z,56.13
2022-08-29T14:06:13.551Z,53.29
2022-08-29T14:08:45.146Z,54.21
2022-08-29T14:11:14.200Z,54.65
2022-08-29T14:13:42.976Z,54.67
2022-08-29T14:16:11.739Z,54.36
2022-08-29T14:18:40.339Z,54.28
2022-08-29T14:21:10.503Z,53.80
2022-08-29T14:23:38.980Z,53.16
2022-08-29T14:26:07.744Z,52.88
2022-08-29T14:28:40.010Z,52.95
2022-08-29T14:31:10.105Z,52.55
2022-08-29T14:33:38.576Z,52.03
2022-08-29T14:36:07.765Z,51.55
2022-08-29T14:38:37.623Z,51.73
2022-08-29T14:41:06.007Z,52.17
2022-08-29T14:43:39.262Z,52.42
2022-08-29T14:46:08.589Z,52.67
2022-08-29T14:48:37.017Z,52.97
2022-08-29T14:51:05.528Z,52.89
2022-08-29T14:53:37.821Z,51.96
2022-08-29T14:56:46.938Z,51.78
2022-08-29T14:59:14.268Z,51.35
2022-08-29T15:01:43.069Z,51.09
2022-08-29T15:04:11.620Z,51.23
2022-08-29T15:06:42.629Z,51.18
2022-08-29T15:09:11.160Z,51.49
2022-08-29T15:11:40.939Z,51.23
2022-08-29T15:14:10.234Z,51.15
2022-08-29T15:16:39.118Z,50.59
2022-08-29T15:21:56.072Z,50.61
2022-08-29T15:24:25.427Z,50.07
2022-08-29T15:27:00.127Z,49.70
2022-08-29T15:29:28.972Z,49.58
2022-08-29T15:31:58.136Z,49.66
2022-08-29T15:34:27.581Z,49.23
2022-08-29T15:36:57.708Z,49.93
2022-08-29T15:39:27.991Z,50.30
2022-08-29T15:41:57.453Z,50.12
2022-08-29T15:44:29.039Z,50.19
2022-08-29T15:46:57.689Z,50.40
2022-08-29T15:49:26.951Z,50.13
2022-08-29T15:51:56.099Z,49.95
2022-08-29T15:54:26.480Z,49.91
2022-08-29T15:56:55.631Z,50.22
2022-08-29T15:59:41.203Z,50.30
2022-08-29T16:02:14.569Z,50.04
2022-08-29T16:04:47.360Z,49.89
2022-08-29T16:07:16.915Z,49.45
2022-08-29T16:09:46.095Z,49.45
2022-08-29T16:12:14.713Z,49.60
2022-08-29T16:15:00.423Z,49.72
2022-08-29T16:17:31.669Z,49.93
2022-08-29T16:20:02.512Z,49.96
2022-08-29T16:22:32.422Z,50.14
2022-08-29T16:25:01.407Z,50.31
2022-08-29T16:27:29.843Z,50.71
2022-08-29T16:29:58.729Z,50.96
2022-08-29T16:32:27.279Z,50.86
2022-08-29T16:34:58.698Z,51.09
2022-08-29T16:37:27.192Z,51.26
2022-08-29T16:39:56.109Z,51.46
2022-08-29T16:42:29.943Z,51.26
2022-08-29T16:44:59.845Z,51.26
2022-08-29T16:47:28.752Z,51.45
2022-08-29T16:49:58.616Z,51.26
2022-08-29T16:52:27.131Z,51.25
2022-08-29T16:54:58.855Z,51.19
2022-08-29T16:57:27.286Z,51.05
2022-08-29T16:59:55.665Z,51.14
2022-08-29T17:02:24.844Z,50.98
2022-08-29T17:04:53.377Z,51.12
2022-08-29T17:07:32.425Z,51.21
2022-08-29T17:10:01.739Z,51.54
2022-08-29T17:12:29.959Z,51.59
2022-08-29T17:14:57.987Z,52.00
2022-08-29T17:17:26.664Z,51.98
2022-08-29T17:19:55.125Z,52.13
2022-08-29T17:22:25.065Z,51.98
2022-08-29T17:24:53.631Z,52.17
2022-08-29T17:27:23.933Z,52.29
2022-08-29T17:29:54.187Z,52.53
2022-08-29T17:32:22.964Z,52.81
2022-08-29T17:34:51.471Z,52.92
2022-08-29T17:37:19.932Z,53.41
2022-08-29T17:39:50.018Z,53.50
2022-08-29T17:42:18.521Z,53.46
2022-08-29T17:44:48.208Z,53.74
2022-08-29T17:47:16.972Z,53.95
2022-08-29T17:49:45.828Z,54.42
2022-08-29T17:52:14.443Z,54.81
2022-08-29T17:54:42.997Z,54.67
2022-08-29T17:57:12.967Z,54.82
2022-08-29T17:59:42.532Z,55.09
2022-08-29T18:02:11.114Z,55.46
2022-08-29T18:04:39.579Z,55.94
2022-08-29T18:07:07.995Z,56.31
2022-08-29T18:09:36.419Z,56.87
2022-08-29T18:12:05.396Z,57.51
2022-08-29T18:14:35.361Z,57.62
2022-08-29T18:17:03.950Z,58.15
2022-08-29T18:19:32.488Z,58.55
2022-08-29T18:22:01.017Z,58.95
2022-08-29T18:24:29.561Z,59.45
2022-08-29T18:26:58.104Z,59.84
2022-08-29T18:29:26.746Z,60.77
2022-08-29T18:31:56.664Z,61.30
2022-08-29T18:34:26.029Z,62.01
2022-08-29T18:36:54.628Z,62.28
2022-08-29T18:39:23.055Z,62.41
2022-08-29T18:41:52.159Z,62.47
2022-08-29T18:44:20.624Z,63.20
2022-08-29T18:46:53.179Z,63.93
2022-08-29T18:49:43.780Z,64.12
2022-08-29T18:52:12.692Z,64.45
2022-08-29T18:54:41.468Z,64.61
2022-08-29T18:57:11.613Z,64.21
2022-08-29T18:59:41.073Z,64.25
2022-08-29T19:02:11.684Z,64.39
2022-08-29T19:04:42.171Z,64.48
2022-08-29T19:07:10.604Z,64.58
2022-08-29T19:09:39.099Z,64.39
2022-08-29T19:12:07.631Z,64.70
2022-08-29T19:14:45.811Z,64.81
2022-08-29T19:17:14.616Z,65.07
2022-08-29T19:20:02.795Z,65.51
2022-08-29T19:22:38.762Z,65.91
2022-08-29T19:25:09.148Z,66.06
2022-08-29T19:27:45.135Z,66.13
2022-08-29T19:30:16.100Z,66.36
2022-08-29T19:32:45.980Z,66.75
2022-08-29T19:35:16.504Z,67.01
2022-08-29T19:37:45.481Z,67.18
2022-08-29T19:40:16.094Z,67.42
2022-08-29T19:42:45.950Z,67.50
2022-08-29T19:45:19.196Z,67.90
2022-08-29T19:47:49.454Z,68.23
2022-08-29T19:50:22.652Z,68.27
2022-08-29T19:52:51.153Z,68.35
2022-08-29T19:55:21.733Z,68.28
2022-08-29T19:57:52.883Z,68.15
2022-08-29T20:00:24.895Z,68.48
2022-08-29T20:02:54.037Z,68.61
2022-08-29T20:05:24.503Z,68.85
2022-08-29T20:07:53.536Z,68.93
2022-08-29T20:10:24.997Z,69.19
2022-08-29T20:12:55.044Z,69.34
2022-08-29T20:15:30.583Z,69.55
2022-08-29T20:18:00.195Z,69.27
2022-08-29T20:20:34.487Z,69.04
2022-08-29T20:23:03.195Z,69.09
2022-08-29T20:25:33.584Z,69.39
2022-08-29T20:28:03.046Z,69.36
2022-08-29T20:30:35.529Z,69.43
2022-08-29T20:33:04.726Z,69.73
2022-08-29T20:35:53.756Z,69.91
2022-08-29T20:38:22.212Z,69.93
2022-08-29T20:40:50.653Z,70.17
2022-08-29T20:43:20.404Z,70.25
2022-08-29T20:45:49.656Z,70.34
2022-08-29T20:48:18.261Z,70.34
2022-08-29T20:50:48.657Z,70.23
2022-08-29T20:53:32.464Z,70.43
2022-08-29T20:56:05.709Z,71.05
2022-08-29T20:58:35.598Z,70.85
2022-08-29T21:01:04.749Z,70.46
2022-08-29T21:03:50.769Z,70.51
2022-08-29T21:06:23.573Z,70.69
2022-08-29T21:08:52.315Z,70.46
2022-08-29T21:11:21.012Z,70.62
2022-08-29T21:13:53.337Z,70.37
2022-08-29T21:16:32.016Z,70.18
2022-08-29T21:19:00.913Z,70.29
2022-08-29T21:21:30.796Z,70.13
2022-08-29T21:23:59.283Z,70.43
2022-08-29T21:26:27.728Z,70.74
2022-08-29T21:28:56.444Z,70.74
2022-08-29T21:31:25.049Z,70.29
2022-08-29T21:33:53.632Z,70.39
2022-08-29T21:36:25.837Z,70.56
2022-08-29T21:38:58.244Z,70.98
2022-08-29T21:41:27.577Z,71.61
2022-08-29T21:43:56.465Z,72.00
2022-08-29T21:46:27.002Z,72.67
2022-08-29T21:48:57.105Z,72.60
2022-08-29T21:51:26.718Z,72.27
2022-08-29T21:53:58.352Z,72.47
2022-08-29T21:56:29.576Z,72.32
2022-08-29T21:58:58.330Z,72.12
2022-08-29T22:01:30.439Z,72.25
2022-08-29T22:04:00.647Z,72.06
2022-08-29T22:06:30.138Z,72.04
2022-08-29T22:09:00.276Z,72.28
2022-08-29T22:11:37.550Z,72.43
2022-08-29T22:14:07.309Z,72.74
2022-08-29T22:16:36.967Z,73.21
2022-08-29T22:19:08.785Z,73.28
2022-08-29T22:21:39.517Z,73.19
2022-08-29T22:24:10.617Z,73.08
2022-08-29T22:26:40.025Z,73.02
2022-08-29T22:29:09.832Z,73.26
2022-08-29T22:31:42.624Z,73.04
2022-08-29T22:34:11.508Z,73.22
2022-08-29T22:36:39.972Z,73.27
2022-08-29T22:39:09.931Z,73.22
2022-08-29T22:41:38.550Z,73.00
2022-08-29T22:46:56.327Z,72.77
2022-08-29T22:49:27.620Z,72.82
2022-08-29T22:52:01.649Z,72.92
2022-08-29T22:54:37.711Z,73.21
2022-08-29T22:57:09.632Z,72.84
2022-08-29T22:59:39.441Z,73.20
2022-08-29T23:02:08.941Z,73.07
2022-08-29T23:04:37.807Z,72.94
2022-08-29T23:07:07.329Z,72.91
2022-08-29T23:09:37.504Z,73.15
2022-08-29T23:12:07.406Z,73.53
2022-08-29T23:14:37.448Z,73.31
2022-08-29T23:17:06.527Z,73.48
2022-08-29T23:19:35.520Z,73.48
2022-08-29T23:22:04.743Z,73.41
2022-08-29T23:24:33.876Z,73.57
2022-08-29T23:27:03.929Z,73.76
2022-08-29T23:29:34.140Z,73.83
2022-08-29T23:32:10.343Z,73.99
2022-08-29T23:34:38.943Z,74.32
2022-08-29T23:37:07.472Z,74.38
2022-08-29T23:39:36.064Z,74.57
2022-08-29T23:42:06.815Z,74.55
2022-08-29T23:44:35.780Z,74.33
2022-08-29T23:47:04.221Z,74.45
2022-08-29T23:49:32.608Z,74.64
2022-08-29T23:52:01.144Z,74.86
2022-08-29T23:54:31.350Z,74.76
2022-08-29T23:57:00.053Z,74.82
2022-08-29T23:59:43.788Z,74.83
